Clyde, Iowa
Current Conditions -  °F | °C
As of 6:53 AM on Thursday 27 Nov 2014 (Local Time) from KAMW Reporting Station
Clear Clear  
Wind Chill: -29°   Ceiling: Unl
Heat Index: -18°   Visibility: 10mi
Dew Point: -22°   Wind: 14mph
Humidity: 75%   Direction: 320°NW
Pressure: 30.51"   Gusts: NA
Location:  41.9063°N, 93.2893°W
Report Text: KAMW 271253Z AUTO 32012KT 10SM CLR M18/M22 A3051 RMK AO2 SLP350 T11831217 $
Loading
Personal Weather Stations






























Interactive Weather Map New forecast layout! Learn more

10-Day Weather Forecast

Advertisements
Track Severe Weather on mobile